sim
Sign-in with your pilot id or email,
or register
Callsign
Passwort

Schedule Details

Flight Number: DLH2199 (3)
Departure: Cologne Bonn Airport (EDDK) at 14:00
Arrival: Munich Airport (EDDM) at 15:05
Route: Lufthansa Passenger Schedule. Enter filed route here before submitting Pirep.

Weather Information
Getting current METAR information for EDDK 210520Z VRB02KT CAVOK 07/05 Q1016 NOSIG
Getting current METAR information for EDDM 210520Z VRB01KT 9999 1500NE R08L/0650N BCFG NSC 07/07 Q1016 NOSIG

Schedule Frequency

Route Map